sensor_id;sensor_type;location;lat;lon;timestamp;pressure;altitude;pressure_sealevel;temperature;humidity
73105;BME280;61296;50.526;30.792;2022-11-20T00:10:24;99818.13;;;-3.80;87.56
73105;BME280;61296;50.526;30.792;2022-11-20T00:25:44;99948.53;;;-3.03;85.31
73105;BME280;61296;50.526;30.792;2022-11-20T00:41:06;99877.22;;;-3.60;85.01
73105;BME280;61296;50.526;30.792;2022-11-20T00:56:26;99952.91;;;-3.17;87.21
73105;BME280;61296;50.526;30.792;2022-11-20T01:11:46;99862.75;;;-3.74;87.20
73105;BME280;61296;50.526;30.792;2022-11-20T01:27:05;99950.19;;;-3.07;88.10
73105;BME280;61296;50.526;30.792;2022-11-20T01:42:24;99921.72;;;-3.18;88.46
73105;BME280;61296;50.526;30.792;2022-11-20T01:58:03;99891.41;;;-3.39;86.10
73105;BME280;61296;50.526;30.792;2022-11-20T02:13:23;99958.81;;;-3.15;87.27
73105;BME280;61296;50.526;30.792;2022-11-20T02:29:02;99965.31;;;-3.26;88.97
73105;BME280;61296;50.526;30.792;2022-11-20T02:44:22;99913.56;;;-3.83;87.89
73105;BME280;61296;50.526;30.792;2022-11-20T02:59:41;99918.09;;;-3.68;89.08
73105;BME280;61296;50.526;30.792;2022-11-20T03:15:01;99962.16;;;-3.54;89.68
73105;BME280;61296;50.526;30.792;2022-11-20T03:30:20;99937.47;;;-3.96;89.53
73105;BME280;61296;50.526;30.792;2022-11-20T03:45:40;99949.53;;;-3.79;89.84
73105;BME280;61296;50.526;30.792;2022-11-20T04:16:26;99981.50;;;-3.52;89.72
73105;BME280;61296;50.526;30.792;2022-11-20T04:31:48;99939.09;;;-3.75;89.84
73105;BME280;61296;50.526;30.792;2022-11-20T04:47:07;99857.97;;;-4.13;88.96
73105;BME280;61296;50.526;30.792;2022-11-20T05:02:26;99865.22;;;-4.49;88.18
73105;BME280;61296;50.526;30.792;2022-11-20T05:17:49;99858.25;;;-4.29;89.47
73105;BME280;61296;50.526;30.792;2022-11-20T05:33:09;99856.63;;;-4.51;89.67
73105;BME280;61296;50.526;30.792;2022-11-20T05:48:28;99889.16;;;-4.27;90.62
73105;BME280;61296;50.526;30.792;2022-11-20T06:03:48;99952.25;;;-4.09;90.79
73105;BME280;61296;50.526;30.792;2022-11-20T06:19:09;99877.31;;;-4.51;91.73
73105;BME280;61296;50.526;30.792;2022-11-20T06:34:28;99802.13;;;-4.92;91.15
73105;BME280;61296;50.526;30.792;2022-11-20T06:49:47;99867.66;;;-4.37;91.08
73105;BME280;61296;50.526;30.792;2022-11-20T07:05:06;99877.84;;;-4.34;91.66
73105;BME280;61296;50.526;30.792;2022-11-20T07:20:26;99877.56;;;-4.12;88.54
73105;BME280;61296;50.526;30.792;2022-11-20T07:35:45;99915.41;;;-3.78;87.41
73105;BME280;61296;50.526;30.792;2022-11-20T07:51:05;99787.66;;;-4.66;87.09
73105;BME280;61296;50.526;30.792;2022-11-20T08:06:24;99894.19;;;-3.64;88.74
73105;BME280;61296;50.526;30.792;2022-11-20T08:21:43;99892.75;;;-3.46;87.13
73105;BME280;61296;50.526;30.792;2022-11-20T08:37:03;99808.47;;;-3.86;88.42
73105;BME280;61296;50.526;30.792;2022-11-20T08:52:23;99884.25;;;-3.04;88.65
73105;BME280;61296;50.526;30.792;2022-11-20T09:07:42;99873.69;;;-2.91;90.36
73105;BME280;61296;50.526;30.792;2022-11-20T09:23:02;99827.63;;;-2.84;89.15
73105;BME280;61296;50.526;30.792;2022-11-20T09:38:21;99744.88;;;-3.41;89.59
73105;BME280;61296;50.526;30.792;2022-11-20T09:53:46;99807.66;;;-2.78;89.86
73105;BME280;61296;50.526;30.792;2022-11-20T10:40:05;99680.56;;;-3.04;90.54
73105;BME280;61296;50.526;30.792;2022-11-20T10:55:44;99745.91;;;-2.64;91.28
73105;BME280;61296;50.526;30.792;2022-11-20T11:26:30;99640.31;;;-3.48;94.08
73105;BME280;61296;50.526;30.792;2022-11-20T11:41:50;99601.84;;;-3.43;94.83
73105;BME280;61296;50.526;30.792;2022-11-20T12:13:01;99610.97;;;-3.10;95.89
73105;BME280;61296;50.526;30.792;2022-11-20T12:44:26;99587.53;;;-3.39;97.92
73105;BME280;61296;50.526;30.792;2022-11-20T13:15:32;99627.38;;;-2.83;99.53
73105;BME280;61296;50.526;30.792;2022-11-20T13:30:55;99622.66;;;-2.96;99.86
73105;BME280;61296;50.526;30.792;2022-11-20T13:46:16;99602.63;;;-2.85;99.37
73105;BME280;61296;50.526;30.792;2022-11-20T14:01:37;99540.25;;;-3.45;99.53
73105;BME280;61296;50.526;30.792;2022-11-20T14:32:38;99573.59;;;-3.12;99.65
73105;BME280;61296;50.526;30.792;2022-11-20T14:47:59;99522.69;;;-3.32;99.32
73105;BME280;61296;50.526;30.792;2022-11-20T15:03:18;99485.47;;;-3.49;99.63
73105;BME280;61296;50.526;30.792;2022-11-20T15:18:39;99428.69;;;-3.71;100.00
73105;BME280;61296;50.526;30.792;2022-11-20T15:34:01;99491.13;;;-3.51;100.00
73105;BME280;61296;50.526;30.792;2022-11-20T15:49:21;99468.66;;;-3.65;100.00
73105;BME280;61296;50.526;30.792;2022-11-20T16:04:43;99535.94;;;-3.12;100.00
73105;BME280;61296;50.526;30.792;2022-11-20T16:20:02;99459.09;;;-3.47;100.00
73105;BME280;61296;50.526;30.792;2022-11-20T16:35:21;99452.09;;;-3.24;100.00
73105;BME280;61296;50.526;30.792;2022-11-20T16:50:48;99481.03;;;-3.11;100.00
73105;BME280;61296;50.526;30.792;2022-11-20T17:06:22;99369.56;;;-3.71;100.00
73105;BME280;61296;50.526;30.792;2022-11-20T17:21:41;99469.97;;;-3.09;100.00
73105;BME280;61296;50.526;30.792;2022-11-20T17:37:01;99382.94;;;-3.66;100.00
73105;BME280;61296;50.526;30.792;2022-11-20T17:52:21;99362.19;;;-3.37;100.00
73105;BME280;61296;50.526;30.792;2022-11-20T18:07:40;99348.97;;;-3.57;100.00
73105;BME280;61296;50.526;30.792;2022-11-20T18:23:00;99398.88;;;-3.03;100.00
73105;BME280;61296;50.526;30.792;2022-11-20T18:38:20;99275.84;;;-3.78;100.00
73105;BME280;61296;50.526;30.792;2022-11-20T18:53:39;99358.38;;;-3.12;100.00
73105;BME280;61296;50.526;30.792;2022-11-20T19:08:58;99302.69;;;-3.30;100.00
73105;BME280;61296;50.526;30.792;2022-11-20T19:24:17;99272.72;;;-3.42;100.00
73105;BME280;61296;50.526;30.792;2022-11-20T19:39:37;99257.88;;;-3.59;100.00
73105;BME280;61296;50.526;30.792;2022-11-20T19:54:56;99162.47;;;-3.99;100.00
73105;BME280;61296;50.526;30.792;2022-11-20T20:10:16;99191.19;;;-3.57;100.00
73105;BME280;61296;50.526;30.792;2022-11-20T20:25:38;99282.47;;;-3.09;100.00
73105;BME280;61296;50.526;30.792;2022-11-20T20:41:00;99262.09;;;-3.15;100.00
73105;BME280;61296;50.526;30.792;2022-11-20T20:56:19;99175.19;;;-3.48;100.00
73105;BME280;61296;50.526;30.792;2022-11-20T21:11:39;99214.00;;;-3.35;100.00
73105;BME280;61296;50.526;30.792;2022-11-20T21:27:00;99234.84;;;-3.27;100.00
73105;BME280;61296;50.526;30.792;2022-11-20T21:42:19;99211.22;;;-3.11;100.00
73105;BME280;61296;50.526;30.792;2022-11-20T21:57:38;99285.31;;;-2.49;100.00
73105;BME280;61296;50.526;30.792;2022-11-20T22:12:58;99266.84;;;-2.55;100.00
73105;BME280;61296;50.526;30.792;2022-11-20T22:28:54;99182.31;;;-3.20;100.00
73105;BME280;61296;50.526;30.792;2022-11-20T22:44:15;99246.47;;;-2.62;100.00
73105;BME280;61296;50.526;30.792;2022-11-20T22:59:35;99158.09;;;-3.20;100.00
73105;BME280;61296;50.526;30.792;2022-11-20T23:14:54;99203.69;;;-2.96;100.00
73105;BME280;61296;50.526;30.792;2022-11-20T23:30:14;99147.00;;;-3.32;100.00
73105;BME280;61296;50.526;30.792;2022-11-20T23:45:37;99231.94;;;-2.60;100.00
